Terminal Aerodrome Forecast
Issued by NWS

Home | Current Version | Previous Version | Text Only | Print | Product List | Glossary On
Versions: 1 2 3 4 5 6 7 8 9 10 11 12 13 14 15 16 17 18 19 20 21 22 23 24 25 26 27 28 29 30 31
000
FTUS45 KBOI 011120
TAFMYL
TAF
KMYL 011120Z 0112/0212 VRB03KT P6SM VCSH SCT025 BKN050 OVC080
      TEMPO 0112/0115 4SM -SHSN BKN025
     FM012000 26007KT P6SM VCSH SCT025 BKN050 OVC080
     FM020300 VRB03KT P6SM SCT025 OVC070=

USA.gov is the U.S. government's official web portal to all federal, state and local government web resources and services.